createdAt,value
2022-09-02T00:01:22.421Z,19.12
2022-09-02T00:03:50.224Z,19.11
2022-09-02T00:06:18.358Z,19.12
2022-09-02T00:08:47.533Z,19.11
2022-09-02T00:11:17.885Z,19.05
2022-09-02T00:13:46.447Z,19.05
2022-09-02T00:16:14.606Z,19.04
2022-09-02T00:18:45.884Z,19.00
2022-09-02T00:21:14.857Z,18.97
2022-09-02T00:23:44.127Z,18.96
2022-09-02T00:26:13.302Z,18.98
2022-09-02T00:28:44.310Z,18.97
2022-09-02T00:31:17.530Z,18.93
2022-09-02T00:33:46.860Z,18.94
2022-09-02T00:36:14.726Z,18.92
2022-09-02T00:38:42.473Z,18.94
2022-09-02T00:41:12.286Z,18.95
2022-09-02T00:43:45.182Z,18.91
2022-09-02T00:46:16.113Z,18.89
2022-09-02T00:48:48.555Z,18.86
2022-09-02T00:51:16.665Z,18.87
2022-09-02T00:53:47.671Z,18.86
2022-09-02T00:56:21.783Z,18.84
2022-09-02T00:58:51.131Z,18.84
2022-09-02T01:01:19.361Z,18.77
2022-09-02T01:03:49.057Z,18.71
2022-09-02T01:06:21.872Z,18.70
2022-09-02T01:08:57.094Z,18.71
2022-09-02T01:11:25.047Z,18.71
2022-09-02T01:13:52.792Z,18.69
2022-09-02T01:16:26.251Z,18.67
2022-09-02T01:18:59.095Z,18.61
2022-09-02T01:21:27.507Z,18.59
2022-09-02T01:23:56.844Z,18.60
2022-09-02T01:26:24.559Z,18.58
2022-09-02T01:28:52.283Z,18.54
2022-09-02T01:31:20.060Z,18.54
2022-09-02T01:33:47.887Z,18.52
2022-09-02T01:36:15.722Z,18.46
2022-09-02T01:38:43.610Z,18.44
2022-09-02T01:41:12.712Z,18.41
2022-09-02T01:43:40.399Z,18.39
2022-09-02T01:46:08.537Z,18.37
2022-09-02T01:48:36.302Z,18.35
2022-09-02T01:51:06.801Z,18.32
2022-09-02T01:53:35.013Z,18.27
2022-09-02T01:56:02.893Z,18.25
2022-09-02T01:58:31.948Z,18.23
2022-09-02T02:00:59.706Z,18.21
2022-09-02T02:03:27.563Z,18.16
2022-09-02T02:05:56.631Z,18.11
2022-09-02T02:08:24.792Z,18.13
2022-09-02T02:10:52.639Z,18.13
2022-09-02T02:13:20.469Z,18.10
2022-09-02T02:15:49.644Z,18.12
2022-09-02T02:18:17.364Z,18.11
2022-09-02T02:20:45.762Z,18.11
2022-09-02T02:23:14.381Z,18.09
2022-09-02T02:25:42.175Z,18.07
2022-09-02T02:28:10.096Z,18.05
2022-09-02T02:30:38.377Z,18.02
2022-09-02T02:33:07.615Z,17.98
2022-09-02T02:35:35.951Z,17.94
2022-09-02T02:38:04.135Z,17.89
2022-09-02T02:40:33.253Z,17.86
2022-09-02T02:43:01.068Z,17.85
2022-09-02T02:45:28.856Z,17.83
2022-09-02T02:47:56.627Z,17.79
2022-09-02T02:50:25.844Z,17.77
2022-09-02T02:52:54.917Z,17.73
2022-09-02T02:55:23.645Z,17.70
2022-09-02T02:57:52.045Z,17.65
2022-09-02T03:00:23.006Z,17.57
2022-09-02T03:02:51.451Z,17.47
2022-09-02T03:05:19.444Z,17.49
2022-09-02T03:07:48.578Z,17.47
2022-09-02T03:10:16.582Z,17.46
2022-09-02T03:12:47.553Z,17.48
2022-09-02T03:15:18.345Z,17.50
2022-09-02T03:17:46.163Z,17.46
2022-09-02T03:20:15.804Z,17.45
2022-09-02T03:22:43.971Z,17.46
2022-09-02T03:25:15.021Z,17.45
2022-09-02T03:27:44.768Z,17.46
2022-09-02T03:30:14.947Z,17.48
2022-09-02T03:32:43.207Z,17.51
2022-09-02T03:35:13.681Z,17.54
2022-09-02T03:37:41.458Z,17.53
2022-09-02T03:40:12.555Z,17.51
2022-09-02T03:42:41.752Z,17.49
2022-09-02T03:45:11.999Z,17.47
2022-09-02T03:47:43.878Z,17.47
2022-09-02T03:50:11.944Z,17.49
2022-09-02T03:52:39.721Z,17.49
2022-09-02T03:55:08.279Z,17.44
2022-09-02T03:57:37.134Z,17.40
2022-09-02T04:00:09.199Z,17.42
2022-09-02T04:02:37.089Z,17.45
2022-09-02T04:05:06.001Z,17.44
2022-09-02T04:07:41.672Z,17.41
2022-09-02T04:12:56.833Z,17.42
2022-09-02T04:15:26.450Z,17.43
2022-09-02T04:18:49.191Z,17.44
2022-09-02T04:21:19.719Z,17.39
2022-09-02T04:23:47.474Z,17.39
2022-09-02T04:26:17.643Z,17.39
2022-09-02T04:28:45.563Z,17.39
2022-09-02T04:31:16.894Z,17.34
2022-09-02T04:33:44.856Z,17.30
2022-09-02T04:36:15.148Z,17.29
2022-09-02T04:38:43.302Z,17.26
2022-09-02T04:41:13.375Z,17.25
2022-09-02T04:43:42.183Z,17.27
2022-09-02T04:46:12.720Z,17.29
2022-09-02T04:48:42.574Z,17.27
2022-09-02T04:51:12.834Z,17.29
2022-09-02T04:53:41.852Z,17.31
2022-09-02T04:56:11.622Z,17.36
2022-09-02T04:58:39.855Z,17.35
2022-09-02T05:01:08.827Z,17.35
2022-09-02T05:03:37.256Z,17.32
2022-09-02T05:06:09.451Z,17.31
2022-09-02T05:08:37.516Z,17.33
2022-09-02T05:11:06.821Z,17.33
2022-09-02T05:13:35.170Z,17.33
2022-09-02T05:16:03.755Z,17.35
2022-09-02T05:18:31.563Z,17.32
2022-09-02T05:20:59.347Z,17.28
2022-09-02T05:23:28.436Z,17.29
2022-09-02T05:25:56.173Z,17.29
2022-09-02T05:28:23.907Z,17.31
2022-09-02T05:30:51.674Z,17.33
2022-09-02T05:33:19.891Z,17.32
2022-09-02T05:35:49.738Z,17.32
2022-09-02T05:38:17.677Z,17.32
2022-09-02T05:40:46.885Z,17.33
2022-09-02T05:43:14.734Z,17.38
2022-09-02T05:45:42.588Z,17.42
2022-09-02T05:48:24.750Z,17.46
2022-09-02T05:50:57.330Z,17.40
2022-09-02T05:53:26.937Z,17.46
2022-09-02T05:55:56.434Z,17.54
2022-09-02T05:58:24.787Z,17.59
2022-09-02T06:00:52.587Z,17.64
2022-09-02T06:03:20.937Z,17.66
2022-09-02T06:05:55.595Z,17.69
2022-09-02T06:08:23.387Z,17.69
2022-09-02T06:10:51.827Z,17.73
2022-09-02T06:13:22.587Z,17.73
2022-09-02T06:15:51.799Z,17.81
2022-09-02T06:18:19.656Z,17.88
2022-09-02T06:20:48.844Z,17.95
2022-09-02T06:23:17.328Z,18.09
2022-09-02T06:25:47.823Z,18.23
2022-09-02T06:28:16.439Z,18.38
2022-09-02T06:30:48.425Z,18.47
2022-09-02T06:33:16.348Z,18.61
2022-09-02T06:35:46.412Z,18.77
2022-09-02T06:38:15.598Z,18.93
2022-09-02T06:40:49.322Z,19.07
2022-09-02T06:43:17.169Z,19.21
2022-09-02T06:45:46.705Z,19.16
2022-09-02T06:48:14.981Z,19.12
2022-09-02T06:50:45.636Z,19.01
2022-09-02T06:53:13.970Z,18.94
2022-09-02T06:55:44.799Z,18.87
2022-09-02T06:58:12.944Z,18.77
2022-09-02T07:00:41.619Z,18.71
2022-09-02T07:03:29.170Z,18.65
2022-09-02T07:06:04.953Z,18.58
2022-09-02T07:08:32.704Z,18.54
2022-09-02T07:11:00.435Z,18.56
2022-09-02T07:13:28.251Z,18.60
2022-09-02T07:15:55.970Z,18.59
2022-09-02T07:18:25.039Z,18.66
2022-09-02T07:20:53.327Z,18.74
2022-09-02T07:23:21.317Z,18.79
2022-09-02T07:25:49.292Z,18.89
2022-09-02T07:28:17.128Z,18.99
2022-09-02T07:30:45.846Z,19.06
2022-09-02T07:33:14.438Z,19.15
2022-09-02T07:35:44.348Z,19.26
2022-09-02T07:38:12.715Z,19.35
2022-09-02T07:40:41.931Z,19.48
2022-09-02T07:43:11.787Z,19.62
2022-09-02T07:45:39.894Z,19.78
2022-09-02T07:48:08.187Z,19.98
2022-09-02T07:50:37.175Z,20.18
2022-09-02T07:53:06.756Z,20.45
2022-09-02T07:55:36.116Z,20.66
2022-09-02T07:58:04.945Z,20.77
2022-09-02T08:00:32.821Z,20.81
2022-09-02T08:03:01.698Z,20.78
2022-09-02T08:05:30.865Z,20.73
2022-09-02T08:07:59.036Z,20.69
2022-09-02T08:10:30.061Z,20.63
2022-09-02T08:13:00.244Z,20.62
2022-09-02T08:15:29.035Z,20.60
2022-09-02T08:17:57.846Z,20.65
2022-09-02T08:20:25.678Z,20.75
2022-09-02T08:23:05.002Z,20.80
2022-09-02T08:25:42.448Z,20.95
2022-09-02T08:28:10.594Z,21.06
2022-09-02T08:30:38.519Z,21.24
2022-09-02T08:33:06.274Z,21.49
2022-09-02T08:35:34.855Z,21.74
2022-09-02T08:38:03.008Z,21.98
2022-09-02T08:40:37.569Z,22.08
2022-09-02T08:43:25.970Z,22.01
2022-09-02T08:45:56.111Z,22.05
2022-09-02T08:48:35.900Z,22.09
2022-09-02T08:51:08.662Z,22.09
2022-09-02T08:53:42.719Z,22.08
2022-09-02T08:56:12.959Z,22.06
2022-09-02T08:58:47.156Z,22.03
2022-09-02T09:01:25.243Z,22.02
2022-09-02T09:04:17.500Z,22.06
2022-09-02T09:07:00.230Z,22.23
2022-09-02T09:09:36.097Z,22.48
2022-09-02T09:12:11.871Z,22.67
2022-09-02T09:14:49.503Z,22.74
2022-09-02T09:17:26.555Z,22.73
2022-09-02T09:19:55.617Z,22.74
2022-09-02T09:22:27.791Z,22.81
2022-09-02T09:24:58.571Z,22.86
2022-09-02T09:27:27.205Z,22.90
2022-09-02T09:29:56.359Z,22.98
2022-09-02T09:32:30.136Z,23.07
2022-09-02T09:35:03.046Z,23.17
2022-09-02T09:37:36.294Z,23.24
2022-09-02T09:40:24.665Z,23.31
2022-09-02T09:42:57.005Z,23.36
2022-09-02T09:45:33.297Z,23.42
2022-09-02T09:48:14.928Z,23.53
2022-09-02T09:50:43.782Z,23.58
2022-09-02T09:53:21.648Z,23.59
2022-09-02T09:55:55.143Z,23.65
2022-09-02T09:58:24.503Z,23.69
2022-09-02T10:00:57.188Z,23.75
2022-09-02T10:03:32.984Z,23.88
2022-09-02T10:06:20.259Z,24.00
2022-09-02T10:08:57.296Z,24.12
2022-09-02T10:11:27.592Z,24.19
2022-09-02T10:14:00.255Z,24.26
2022-09-02T10:16:42.615Z,24.29
2022-09-02T10:19:16.059Z,24.30
2022-09-02T10:22:02.289Z,24.36
2022-09-02T10:24:47.512Z,24.34
2022-09-02T10:27:19.158Z,24.31
2022-09-02T10:29:55.948Z,24.21
2022-09-02T10:32:46.727Z,24.17
2022-09-02T10:35:22.524Z,24.19
2022-09-02T10:38:13.409Z,24.33
2022-09-02T10:40:49.951Z,24.56
2022-09-02T10:43:29.526Z,24.70
2022-09-02T10:46:01.380Z,24.86
2022-09-02T10:48:46.131Z,24.98
2022-09-02T10:51:20.404Z,25.04
2022-09-02T10:54:01.761Z,25.07
2022-09-02T10:56:35.063Z,25.03
2022-09-02T10:59:09.442Z,24.96
2022-09-02T11:01:44.973Z,24.98
2022-09-02T11:04:24.257Z,25.01
2022-09-02T11:07:02.359Z,25.03
2022-09-02T11:09:36.960Z,25.07
2022-09-02T11:12:11.009Z,25.09
2022-09-02T11:14:48.907Z,25.08
2022-09-02T11:17:23.202Z,25.09
2022-09-02T11:19:59.194Z,25.12
2022-09-02T11:22:31.370Z,25.21
2022-09-02T11:25:04.761Z,25.34
2022-09-02T11:27:42.409Z,25.47
2022-09-02T11:30:14.792Z,25.62
2022-09-02T11:32:46.695Z,25.81
2022-09-02T11:35:21.016Z,25.91
2022-09-02T11:37:53.687Z,25.98
2022-09-02T11:40:34.691Z,26.00
2022-09-02T11:43:24.922Z,26.03
2022-09-02T11:46:05.757Z,26.11
2022-09-02T11:49:06.337Z,26.30
2022-09-02T11:51:55.695Z,26.35
2022-09-02T11:54:27.473Z,26.24
2022-09-02T11:57:01.869Z,26.21
2022-09-02T12:00:06.492Z,26.22
2022-09-02T12:02:39.199Z,26.02
2022-09-02T12:05:44.511Z,26.10
2022-09-02T12:08:15.502Z,26.16
2022-09-02T12:11:00.834Z,26.19
2022-09-02T12:13:41.010Z,26.23
2022-09-02T12:16:38.810Z,26.25
2022-09-02T12:19:28.959Z,26.20
2022-09-02T12:22:42.481Z,26.23
2022-09-02T12:25:42.199Z,26.48
2022-09-02T12:28:28.465Z,26.67
2022-09-02T12:31:17.729Z,26.79
2022-09-02T12:33:51.762Z,26.86
2022-09-02T12:36:47.454Z,26.88
2022-09-02T12:39:46.375Z,26.82
2022-09-02T12:42:25.635Z,26.73
2022-09-02T12:45:04.725Z,26.69
2022-09-02T12:47:47.471Z,26.65
2022-09-02T12:50:23.352Z,26.65
2022-09-02T12:52:52.637Z,26.59
2022-09-02T12:55:25.203Z,26.54
2022-09-02T12:57:56.892Z,26.53
2022-09-02T13:00:35.020Z,26.54
2022-09-02T13:03:32.943Z,26.50
2022-09-02T13:06:07.381Z,26.46
2022-09-02T13:08:59.079Z,26.62
2022-09-02T13:12:15.486Z,26.84
2022-09-02T13:15:02.625Z,27.07
2022-09-02T13:17:46.287Z,27.27
2022-09-02T13:20:44.675Z,27.45
2022-09-02T13:23:40.976Z,27.49
2022-09-02T13:26:39.124Z,27.48
2022-09-02T13:29:37.894Z,27.41
2022-09-02T13:32:15.761Z,27.38
2022-09-02T13:34:44.858Z,27.35
2022-09-02T13:37:36.500Z,27.29
2022-09-02T13:40:17.604Z,27.15
2022-09-02T13:42:49.857Z,26.91
2022-09-02T13:45:19.710Z,26.76
2022-09-02T13:47:52.662Z,26.65
2022-09-02T13:50:23.015Z,26.59
2022-09-02T13:55:49.418Z,26.63
2022-09-02T13:58:25.270Z,26.67
2022-09-02T14:00:53.131Z,26.67
2022-09-02T14:03:27.405Z,26.68
2022-09-02T14:05:59.970Z,26.65
2022-09-02T14:08:30.104Z,26.59
2022-09-02T14:10:58.494Z,26.51
2022-09-02T14:13:27.758Z,26.44
2022-09-02T14:15:55.640Z,26.40
2022-09-02T14:18:26.509Z,26.54
2022-09-02T14:20:59.042Z,26.71
2022-09-02T14:23:28.382Z,26.91
2022-09-02T14:25:58.276Z,27.13
2022-09-02T14:28:28.367Z,27.27
2022-09-02T14:30:59.920Z,27.33
2022-09-02T14:33:39.738Z,27.37
2022-09-02T14:36:09.811Z,27.35
2022-09-02T14:38:50.231Z,27.35
2022-09-02T14:41:23.171Z,27.37
2022-09-02T14:43:53.979Z,27.45
2022-09-02T14:46:28.933Z,27.52
2022-09-02T14:49:03.094Z,27.49
2022-09-02T14:51:37.849Z,27.48
2022-09-02T14:54:06.979Z,27.45
2022-09-02T14:56:54.739Z,27.36
2022-09-02T14:59:22.467Z,27.31
2022-09-02T15:01:52.950Z,27.25
2022-09-02T15:04:22.383Z,27.19
2022-09-02T15:06:51.659Z,27.13
2022-09-02T15:09:19.684Z,27.02
2022-09-02T15:11:51.746Z,26.90
2022-09-02T15:14:19.321Z,26.83
2022-09-02T15:16:47.983Z,26.77
2022-09-02T15:19:15.759Z,26.73
2022-09-02T15:21:44.823Z,26.71
2022-09-02T15:24:12.719Z,26.62
2022-09-02T15:26:40.508Z,26.59
2022-09-02T15:29:08.217Z,26.58
2022-09-02T15:31:36.460Z,26.57
2022-09-02T15:34:04.831Z,26.59
2022-09-02T15:36:32.565Z,26.55
2022-09-02T15:39:01.664Z,26.49
2022-09-02T15:41:31.408Z,26.40
2022-09-02T15:44:00.645Z,26.29
2022-09-02T15:46:29.564Z,26.23
2022-09-02T15:49:02.690Z,26.21
2022-09-02T15:51:31.041Z,26.25
2022-09-02T15:54:03.492Z,26.28
2022-09-02T15:56:33.346Z,26.22
2022-09-02T15:59:02.334Z,26.21
2022-09-02T16:01:31.805Z,26.19
2022-09-02T16:04:00.439Z,26.20
2022-09-02T16:06:28.241Z,26.19
2022-09-02T16:08:56.475Z,26.22
2022-09-02T16:11:26.325Z,26.22
2022-09-02T16:13:54.975Z,26.17
2022-09-02T16:16:22.849Z,26.13
2022-09-02T16:18:52.219Z,26.08
2022-09-02T16:21:21.402Z,26.03
2022-09-02T16:23:50.255Z,25.99
2022-09-02T16:26:24.716Z,25.93
2022-09-02T16:28:55.541Z,25.89
2022-09-02T16:31:25.385Z,25.84
2022-09-02T16:33:54.513Z,25.82
2022-09-02T16:36:22.551Z,25.84
2022-09-02T16:38:50.479Z,25.82
2022-09-02T16:41:27.246Z,25.84
2022-09-02T16:43:58.053Z,25.83
2022-09-02T16:46:27.004Z,25.82
2022-09-02T16:48:55.968Z,25.81
2022-09-02T16:51:24.870Z,25.78
2022-09-02T16:53:55.411Z,25.72
2022-09-02T16:56:24.209Z,25.69
2022-09-02T16:58:52.523Z,25.69
2022-09-02T17:01:23.096Z,25.65
2022-09-02T17:03:51.620Z,25.57
2022-09-02T17:06:19.766Z,25.54
2022-09-02T17:08:47.634Z,25.51
2022-09-02T17:11:20.937Z,25.46
2022-09-02T17:13:50.241Z,25.46
2022-09-02T17:16:19.325Z,25.44
2022-09-02T17:18:48.733Z,25.37
2022-09-02T17:21:26.437Z,25.36
2022-09-02T17:23:55.145Z,25.35
2022-09-02T17:26:24.596Z,25.32
2022-09-02T17:28:54.745Z,25.31
2022-09-02T17:31:25.533Z,25.32
2022-09-02T17:33:56.412Z,25.27
2022-09-02T17:36:25.965Z,25.23
2022-09-02T17:38:56.960Z,25.22
2022-09-02T17:41:42.318Z,25.18
2022-09-02T17:44:10.124Z,25.14
2022-09-02T17:46:37.864Z,25.08
2022-09-02T17:49:16.851Z,25.02
2022-09-02T17:51:46.436Z,24.97
2022-09-02T17:54:15.131Z,24.92
2022-09-02T17:57:08.555Z,24.86
2022-09-02T17:59:48.379Z,24.82
2022-09-02T18:02:41.674Z,24.75
2022-09-02T18:05:21.353Z,24.72
2022-09-02T18:07:53.708Z,24.65
2022-09-02T18:10:22.473Z,24.61
2022-09-02T18:12:50.436Z,24.53
2022-09-02T18:15:19.448Z,24.45
2022-09-02T18:17:50.654Z,24.39
2022-09-02T18:20:27.897Z,24.32
2022-09-02T18:23:20.715Z,24.30
2022-09-02T18:25:55.543Z,24.23
2022-09-02T18:28:43.671Z,24.17
2022-09-02T18:31:28.467Z,24.09
2022-09-02T18:34:06.696Z,24.04
2022-09-02T18:36:44.144Z,23.98
2022-09-02T18:39:27.058Z,23.94
2022-09-02T18:42:09.249Z,23.90
2022-09-02T18:44:45.399Z,23.87
2022-09-02T18:47:18.328Z,23.81
2022-09-02T18:49:47.114Z,23.76
2022-09-02T18:52:16.222Z,23.71
2022-09-02T18:54:47.947Z,23.64
2022-09-02T18:57:16.081Z,23.59
2022-09-02T18:59:51.543Z,23.52
2022-09-02T19:02:29.215Z,23.46
2022-09-02T19:04:58.680Z,23.40
2022-09-02T19:07:47.750Z,23.32
2022-09-02T19:10:15.853Z,23.23
2022-09-02T19:12:44.135Z,23.18
2022-09-02T19:15:13.642Z,23.11
2022-09-02T19:17:42.127Z,23.08
2022-09-02T19:20:10.990Z,23.04
2022-09-02T19:22:43.371Z,22.98
2022-09-02T19:25:14.167Z,22.92
2022-09-02T19:27:44.861Z,22.86
2022-09-02T19:30:15.892Z,22.83
2022-09-02T19:32:46.389Z,22.80
2022-09-02T19:35:17.388Z,22.74
2022-09-02T19:37:51.185Z,22.70
2022-09-02T19:40:22.068Z,22.65
2022-09-02T19:42:51.934Z,22.57
2022-09-02T19:45:21.634Z,22.52
2022-09-02T19:48:06.495Z,22.48
2022-09-02T19:50:36.063Z,22.43
2022-09-02T19:53:05.874Z,22.41
2022-09-02T19:55:35.790Z,22.35
2022-09-02T19:58:03.486Z,22.30
2022-09-02T20:00:33.202Z,22.27
2022-09-02T20:03:03.288Z,22.21
2022-09-02T20:05:32.107Z,22.18
2022-09-02T20:07:59.866Z,22.12
2022-09-02T20:10:29.790Z,22.07
2022-09-02T20:12:58.028Z,22.04
2022-09-02T20:15:25.776Z,22.00
2022-09-02T20:17:53.676Z,22.00
2022-09-02T20:20:23.880Z,21.94
2022-09-02T20:22:55.698Z,21.92
2022-09-02T20:25:33.495Z,21.88
2022-09-02T20:28:11.764Z,21.83
2022-09-02T20:30:45.897Z,21.81
2022-09-02T20:33:17.468Z,21.76
2022-09-02T20:36:02.047Z,21.70
2022-09-02T20:38:49.654Z,21.66
2022-09-02T20:41:30.277Z,21.64
2022-09-02T20:44:14.612Z,21.63
2022-09-02T20:46:59.076Z,21.58
2022-09-02T20:49:47.699Z,21.55
2022-09-02T20:52:22.683Z,21.50
2022-09-02T20:55:00.307Z,21.45
2022-09-02T20:57:40.491Z,21.41
2022-09-02T21:00:11.085Z,21.37
2022-09-02T21:02:45.243Z,21.31
2022-09-02T21:05:22.102Z,21.28
2022-09-02T21:07:57.839Z,21.27
2022-09-02T21:10:29.997Z,21.24
2022-09-02T21:13:07.866Z,21.17
2022-09-02T21:15:42.779Z,21.18
2022-09-02T21:18:17.419Z,21.14
2022-09-02T21:20:48.634Z,21.13
2022-09-02T21:23:21.998Z,21.11
2022-09-02T21:25:55.959Z,21.08
2022-09-02T21:28:30.935Z,21.08
2022-09-02T21:31:04.893Z,21.05
2022-09-02T21:33:36.163Z,20.99
2022-09-02T21:36:06.316Z,20.97
2022-09-02T21:38:40.498Z,20.94
2022-09-02T21:41:25.671Z,20.94
2022-09-02T21:44:03.443Z,20.88
2022-09-02T21:46:39.156Z,20.83
2022-09-02T21:49:28.162Z,20.80
2022-09-02T21:52:08.892Z,20.76
2022-09-02T21:54:51.642Z,20.72
2022-09-02T21:57:38.786Z,20.70
2022-09-02T22:00:10.771Z,20.66
2022-09-02T22:02:49.960Z,20.64
2022-09-02T22:05:39.907Z,20.62
2022-09-02T22:08:17.239Z,20.58
2022-09-02T22:11:00.362Z,20.54
2022-09-02T22:13:31.603Z,20.49
2022-09-02T22:16:13.453Z,20.47
2022-09-02T22:18:45.191Z,20.44
2022-09-02T22:21:20.970Z,20.43
2022-09-02T22:23:59.774Z,20.43
2022-09-02T22:26:41.039Z,20.38
2022-09-02T22:29:18.582Z,20.34
2022-09-02T22:31:54.185Z,20.29
2022-09-02T22:34:23.815Z,20.28
2022-09-02T22:37:03.238Z,20.24
2022-09-02T22:39:38.402Z,20.19
2022-09-02T22:42:20.198Z,20.17
2022-09-02T22:45:15.313Z,20.15
2022-09-02T22:48:10.167Z,20.08
2022-09-02T22:51:02.659Z,20.04
2022-09-02T22:53:30.953Z,20.04
2022-09-02T22:56:02.435Z,20.04
2022-09-02T22:58:57.609Z,20.00
2022-09-02T23:01:34.278Z,19.97
2022-09-02T23:04:18.217Z,19.97
2022-09-02T23:06:46.394Z,19.96
2022-09-02T23:09:15.998Z,19.95
2022-09-02T23:11:56.729Z,19.93
2022-09-02T23:14:35.470Z,19.91
2022-09-02T23:17:33.728Z,19.91
2022-09-02T23:20:13.237Z,19.88
2022-09-02T23:23:11.650Z,19.85
2022-09-02T23:25:54.663Z,19.81
2022-09-02T23:28:32.548Z,19.79
2022-09-02T23:31:08.913Z,19.79
2022-09-02T23:33:51.403Z,19.77
2022-09-02T23:36:35.271Z,19.75
2022-09-02T23:39:13.121Z,19.72
2022-09-02T23:41:47.534Z,19.71
2022-09-02T23:44:16.675Z,19.70
2022-09-02T23:47:00.457Z,19.67
2022-09-02T23:49:40.246Z,19.61
2022-09-02T23:52:22.994Z,19.60
2022-09-02T23:55:13.276Z,19.59
2022-09-02T23:57:58.719Z,19.51
